Middletown, CT (06459)

9:24 AM EST on February 06, 2016 (GMT -0500)
Middletown Framing | | Change Station
CLOSE
Current Station
Personal Weather Station
Location: Middletown, CT
Elevation: 56 ft
Nearby Weather Stations
Active Advisory: Special Statement Active Notice: Record Report

Elev 56 ft 41.56 °N, 72.65 °W | Updated 2 minutes ago

Partly Cloudy
Partly Cloudy
29.1 °F
Feels Like 29 °F
N
0.0
Wind Variable Wind from North
Gusts 0.0 mph

Today
High -- | Low -- °F
--% Chance of Precip.
Yesterday
High -- | Low -- °F
Precip. -- in
Pressure 30.42 in
Visibility 10.0 miles
Clouds Clear
Windchill 29 °F
Dew Point 23 °F
Humidity 78%
Rainfall 0.00 in
Snow Depth Not available.
6:57 AM 5:12 PM
Waning Crescent, 5% visible
METAR KMMK 061353Z AUTO 00000KT 10SM CLR M06/M08 A3042 RMK AO2 SLP301 T10611078 TSNO
Pressure 30.42 in
Visibility 10.0 miles
Clouds Clear
Windchill 29 °F
Dew Point 23 °F
Humidity 78%
Rainfall 0.00 in
Snow Depth Not available.
6:57 AM 5:12 PM
Waning Crescent, 5% visible
METAR KMMK 061353Z AUTO 00000KT 10SM CLR M06/M08 A3042 RMK AO2 SLP301 T10611078 TSNO

10-Day Weather Forecast

Almanac

Astronomy

Feb. 06, 2016 Rise Set
Actual Time
Civil Twilight
Nautical Twilight
Astronomical Twilight
Moon
Length of Visible Light
Length of Day
Tomorrow will be .
, % of the Moon is Illuminated

Today's Extremes

State Highs State Lows

Community

WunderPhotos

Upload Photos

1,890,981 photos uploaded!

WunderBlog® & News

Nearby

Air Quality

  Air Quality AQ Index Pollutant
Not available.

Snow Depth

Station Depth Elevation

Earthquake Activity

City Distance Mag. Time & Date
Minimum magnitude displayed is 2.5.

Coastal Water Temperatures

Place Temperature

Stations

Nearby Weather Stations

Station Location Temp. Windchill Dew Point Humidity Wind Precip. Elev Updated Type
                   

Watches & Warnings

Special Statement
Issued: 9:24 PM EST Feb. 5, 2016 – National Weather Service

Standing water from melted snow will refreeze tonight. Icy spots
are anticipated... especially on untreated surfaces. Use extra
caution when out driving or walking tonight into Saturday morning.